createdAt,value
2022-10-11T00:01:35.734Z,3.90
2022-10-11T00:04:05.459Z,3.87
2022-10-11T00:06:34.303Z,3.90
2022-10-11T00:09:03.880Z,4.00
2022-10-11T00:11:33.123Z,4.00
2022-10-11T00:14:03.412Z,3.93
2022-10-11T00:16:32.420Z,4.07
2022-10-11T00:19:01.549Z,4.40
2022-10-11T00:21:46.286Z,3.50
2022-10-11T00:24:16.273Z,3.90
2022-10-11T00:26:46.961Z,3.63
2022-10-11T00:29:17.355Z,3.97
2022-10-11T00:31:45.991Z,3.93
2022-10-11T00:34:17.568Z,4.33
2022-10-11T00:36:46.246Z,4.17
2022-10-11T00:39:15.121Z,3.93
2022-10-11T00:41:43.761Z,4.20
2022-10-11T00:44:15.584Z,5.00
2022-10-11T00:46:47.408Z,4.30
2022-10-11T00:49:22.793Z,4.50
2022-10-11T00:51:56.091Z,4.10
2022-10-11T00:54:28.539Z,4.43
2022-10-11T00:57:04.259Z,4.10
2022-10-11T00:59:37.885Z,4.47
2022-10-11T01:02:09.671Z,4.63
2022-10-11T01:04:39.104Z,4.47
2022-10-11T01:07:07.982Z,4.63
2022-10-11T01:09:36.878Z,3.93
2022-10-11T01:12:06.777Z,4.07
2022-10-11T01:14:45.122Z,4.27
2022-10-11T01:17:20.940Z,4.37
2022-10-11T01:19:55.362Z,4.27
2022-10-11T01:22:33.081Z,4.90
2022-10-11T01:25:16.376Z,4.20
2022-10-11T01:28:12.687Z,4.40
2022-10-11T01:30:45.981Z,4.13
2022-10-11T01:33:22.478Z,4.93
2022-10-11T01:35:56.483Z,4.87
2022-10-11T01:38:30.714Z,5.37
2022-10-11T01:41:04.133Z,5.73
2022-10-11T01:43:33.821Z,4.80
2022-10-11T01:46:12.032Z,5.33
2022-10-11T01:48:51.701Z,6.00
2022-10-11T01:51:23.562Z,5.73
2022-10-11T01:54:06.625Z,5.60
2022-10-11T01:56:55.198Z,5.77
2022-10-11T01:59:43.682Z,5.10
2022-10-11T02:02:19.540Z,5.20
2022-10-11T02:05:00.789Z,6.40
2022-10-11T02:07:43.049Z,5.07
2022-10-11T02:10:18.431Z,5.20
2022-10-11T02:12:55.592Z,5.07
2022-10-11T02:15:31.407Z,5.60
2022-10-11T02:18:08.405Z,4.80
2022-10-11T02:20:43.164Z,5.43
2022-10-11T02:23:19.397Z,4.83
2022-10-11T02:25:53.314Z,4.63
2022-10-11T02:28:39.127Z,4.80
2022-10-11T02:31:16.352Z,4.83
2022-10-11T02:33:53.863Z,4.67
2022-10-11T02:36:37.460Z,4.97
2022-10-11T02:39:24.732Z,4.50
2022-10-11T02:45:07.261Z,5.83
2022-10-11T02:47:37.052Z,4.63
2022-10-11T02:55:50.750Z,4.00
2022-10-11T02:58:36.703Z,5.07
2022-10-11T03:01:16.002Z,4.67
2022-10-11T03:03:45.098Z,4.93
2022-10-11T03:06:14.774Z,5.03
2022-10-11T03:08:43.291Z,5.00
2022-10-11T03:11:12.524Z,5.13
2022-10-11T03:13:42.068Z,5.37
2022-10-11T03:16:15.409Z,4.40
2022-10-11T03:18:44.448Z,5.20
2022-10-11T03:21:12.911Z,5.60
2022-10-11T03:23:42.884Z,5.27
2022-10-11T03:26:13.807Z,4.83
2022-10-11T03:28:42.969Z,4.93
2022-10-11T03:31:16.041Z,5.03
2022-10-11T03:33:46.774Z,4.53
2022-10-11T03:36:17.170Z,6.10
2022-10-11T03:38:46.597Z,5.43
2022-10-11T03:49:16.499Z,4.73
2022-10-11T03:51:47.197Z,4.70
2022-10-11T03:54:16.568Z,4.53
2022-10-11T03:56:45.429Z,4.37
2022-10-11T03:59:15.881Z,4.37
2022-10-11T04:01:44.755Z,3.97
2022-10-11T04:04:13.787Z,4.13
2022-10-11T04:06:49.829Z,3.70
2022-10-11T04:09:18.947Z,3.50
2022-10-11T04:11:48.503Z,3.67
2022-10-11T04:14:17.516Z,3.97
2022-10-11T04:16:48.524Z,4.40
2022-10-11T04:19:31.370Z,4.60
2022-10-11T04:22:03.652Z,3.90
2022-10-11T04:32:43.967Z,3.70
2022-10-11T04:35:13.873Z,3.53
2022-10-11T04:37:45.206Z,3.23
2022-10-11T04:40:17.342Z,3.60
2022-10-11T04:45:55.245Z,3.53
2022-10-11T04:48:28.126Z,3.50
2022-10-11T04:53:54.805Z,3.10
2022-10-11T04:56:45.257Z,3.73
2022-10-11T04:59:36.391Z,3.90
2022-10-11T05:02:04.703Z,3.73
2022-10-11T05:04:32.781Z,3.73
2022-10-11T05:07:00.762Z,3.93
2022-10-11T05:32:31.183Z,4.60
2022-10-11T05:35:09.857Z,4.20
2022-10-11T05:37:44.498Z,4.03
2022-10-11T05:45:48.445Z,4.67
2022-10-11T07:17:47.885Z,3.90
2022-10-11T11:23:44.009Z,3.87
2022-10-11T11:51:09.409Z,4.23
2022-10-11T11:54:31.497Z,3.60
2022-10-11T12:01:37.518Z,4.47
2022-10-11T14:36:58.204Z,5.90
2022-10-11T14:39:43.740Z,6.00
2022-10-11T14:42:45.138Z,5.57
2022-10-11T14:45:16.955Z,5.73
2022-10-11T14:50:47.876Z,5.53
2022-10-11T14:53:18.391Z,6.43
2022-10-11T14:55:50.621Z,6.50
2022-10-11T14:58:27.649Z,6.73
2022-10-11T15:01:06.823Z,6.63
2022-10-11T15:03:38.638Z,7.20
2022-10-11T15:06:08.916Z,6.10
2022-10-11T15:11:24.455Z,5.77
2022-10-11T15:13:58.153Z,5.87
2022-10-11T15:16:28.054Z,4.73
2022-10-11T15:18:57.044Z,6.30
2022-10-11T15:24:11.387Z,5.73
2022-10-11T15:26:41.096Z,4.57
2022-10-11T15:29:20.453Z,5.67
2022-10-11T15:31:53.995Z,5.00
2022-10-11T15:34:23.496Z,4.97
2022-10-11T15:36:53.965Z,5.43
2022-10-11T15:39:28.181Z,5.37
2022-10-11T15:41:56.862Z,6.03
2022-10-11T15:45:22.590Z,5.50
2022-10-11T15:47:57.005Z,4.80
2022-10-11T15:50:37.752Z,5.23
2022-10-11T15:53:09.205Z,5.57
2022-10-11T15:55:40.859Z,5.67
2022-10-11T15:58:17.578Z,4.77
2022-10-11T16:00:48.586Z,5.63
2022-10-11T16:03:19.681Z,5.23
2022-10-11T16:05:48.669Z,5.30
2022-10-11T16:08:17.827Z,5.83
2022-10-11T16:10:47.779Z,5.47
2022-10-11T16:13:16.320Z,5.80
2022-10-11T16:15:44.980Z,5.30
2022-10-11T16:18:15.439Z,4.83
2022-10-11T16:20:47.030Z,5.07
2022-10-11T16:23:16.093Z,5.40
2022-10-11T16:25:44.549Z,5.83
2022-10-11T16:28:17.418Z,5.27
2022-10-11T16:33:49.567Z,5.53
2022-10-11T16:36:43.304Z,6.10
2022-10-11T16:39:15.202Z,6.27
2022-10-11T16:41:45.325Z,5.70
2022-10-11T16:44:15.717Z,6.47
2022-10-11T16:46:48.557Z,6.90
2022-10-11T16:52:20.005Z,6.30
2022-10-11T16:54:50.712Z,8.37
2022-10-11T16:57:23.494Z,11.87
2022-10-11T16:59:58.273Z,6.37
2022-10-11T17:05:16.491Z,6.23
2022-10-11T17:07:47.378Z,5.63
2022-10-11T17:10:16.809Z,7.10
2022-10-11T17:12:49.894Z,6.40
2022-10-11T17:15:32.957Z,6.20
2022-10-11T17:18:18.369Z,7.07
2022-10-11T17:20:47.597Z,6.07
2022-10-11T18:04:58.360Z,9.67
2022-10-11T18:07:40.696Z,9.87
2022-10-11T18:10:10.888Z,10.43
2022-10-11T18:12:41.353Z,9.57
2022-10-11T18:15:13.651Z,10.23
2022-10-11T18:21:00.654Z,9.13
2022-10-11T18:23:35.736Z,12.13
2022-10-11T18:26:21.293Z,11.33
2022-10-11T18:28:53.469Z,10.37
2022-10-11T18:31:35.175Z,9.13
2022-10-11T18:34:11.899Z,10.23
2022-10-11T18:36:42.722Z,10.23
2022-10-11T18:39:15.958Z,9.43
2022-10-11T18:44:41.600Z,10.73
2022-10-11T18:47:13.248Z,10.00
2022-10-11T18:49:44.115Z,10.70
2022-10-11T18:52:13.223Z,10.33
2022-10-11T18:54:41.800Z,10.03
2022-10-11T18:59:53.732Z,10.27
2022-10-11T19:02:23.222Z,10.27
2022-10-11T19:04:54.995Z,11.70
2022-10-11T19:07:26.403Z,10.10
2022-10-11T19:09:56.052Z,9.97
2022-10-11T19:12:25.448Z,10.37
2022-10-11T19:14:55.697Z,10.53
2022-10-11T19:17:25.488Z,11.17
2022-10-11T19:19:57.791Z,10.93
2022-10-11T19:25:24.717Z,10.97
2022-10-11T19:41:55.521Z,12.23
2022-10-11T19:47:17.409Z,11.53
2022-10-11T20:06:14.699Z,11.60
2022-10-11T20:11:55.680Z,11.07
2022-10-11T20:17:52.862Z,12.67
2022-10-11T20:20:27.296Z,13.70
2022-10-11T20:22:58.986Z,12.47
2022-10-11T20:28:21.898Z,12.27
2022-10-11T20:30:55.416Z,15.23
2022-10-11T20:33:25.971Z,14.90
2022-10-11T20:36:07.646Z,14.10
2022-10-11T20:41:27.294Z,13.80
2022-10-11T20:43:58.466Z,12.73
2022-10-11T21:06:40.769Z,13.57
2022-10-11T21:14:44.074Z,13.37
2022-10-11T21:17:18.102Z,13.00
2022-10-11T21:19:51.428Z,13.80
2022-10-11T21:25:21.622Z,13.70
2022-10-11T21:28:03.274Z,13.30
2022-10-11T21:31:00.832Z,13.23
2022-10-11T21:33:59.017Z,14.43
2022-10-11T21:36:37.682Z,14.17
2022-10-11T21:39:06.432Z,14.93
2022-10-11T21:41:36.622Z,14.27
2022-10-11T21:44:05.636Z,14.53
2022-10-11T21:47:04.820Z,14.57
2022-10-11T21:53:08.876Z,13.57
2022-10-11T21:56:03.688Z,14.00
2022-10-11T21:58:33.747Z,13.93
2022-10-11T22:01:08.421Z,14.97
2022-10-11T22:03:39.742Z,13.00
2022-10-11T22:09:19.257Z,13.07
2022-10-11T22:11:54.467Z,13.70
2022-10-11T22:14:26.147Z,14.67
2022-10-11T22:16:55.126Z,14.87
2022-10-11T22:19:24.948Z,15.50
2022-10-11T22:21:56.084Z,15.13
2022-10-11T22:24:28.613Z,14.17
2022-10-11T22:27:01.802Z,14.67
2022-10-11T22:29:34.215Z,14.40
2022-10-11T22:32:18.422Z,15.13
2022-10-11T22:34:48.819Z,14.77
2022-10-11T22:37:30.822Z,14.47
2022-10-11T22:40:08.176Z,15.93
2022-10-11T22:42:38.332Z,15.20
2022-10-11T22:45:09.327Z,15.23
2022-10-11T22:47:38.371Z,14.70
2022-10-11T23:06:31.545Z,16.33
2022-10-11T23:11:55.698Z,17.30
2022-10-11T23:14:26.695Z,16.03
2022-10-11T23:17:11.281Z,16.53
2022-10-11T23:19:48.656Z,17.33
2022-10-11T23:22:23.655Z,16.83
2022-10-11T23:24:54.443Z,16.60
2022-10-11T23:27:28.076Z,16.80
2022-10-11T23:30:05.306Z,16.87
2022-10-11T23:32:43.065Z,17.57
2022-10-11T23:35:12.444Z,19.33
2022-10-11T23:37:45.726Z,17.13
2022-10-11T23:40:17.065Z,18.83
2022-10-11T23:42:56.310Z,18.67
2022-10-11T23:45:45.284Z,19.53
2022-10-11T23:48:16.719Z,19.47
2022-10-11T23:50:49.131Z,19.03
2022-10-11T23:53:23.059Z,19.47
2022-10-11T23:56:06.044Z,19.57
2022-10-11T23:58:37.804Z,19.23
